sensor_id;sensor_type;location;lat;lon;timestamp;P1;durP1;ratioP1;P2;durP2;ratioP2
651;SDS011;310;48.490;9.200;2023-08-06T00:02:13;114.83;;;3.57;;
651;SDS011;310;48.490;9.200;2023-08-06T00:04:38;114.80;;;3.50;;
651;SDS011;310;48.490;9.200;2023-08-06T00:07:04;115.37;;;3.83;;
651;SDS011;310;48.490;9.200;2023-08-06T00:09:29;115.20;;;3.80;;
651;SDS011;310;48.490;9.200;2023-08-06T00:11:55;115.17;;;3.90;;
651;SDS011;310;48.490;9.200;2023-08-06T00:14:21;114.73;;;3.53;;
651;SDS011;310;48.490;9.200;2023-08-06T00:16:46;114.90;;;3.60;;
651;SDS011;310;48.490;9.200;2023-08-06T00:19:12;115.13;;;3.77;;
651;SDS011;310;48.490;9.200;2023-08-06T00:21:38;115.27;;;3.87;;
651;SDS011;310;48.490;9.200;2023-08-06T00:24:03;114.83;;;3.53;;
651;SDS011;310;48.490;9.200;2023-08-06T00:26:29;115.17;;;3.73;;
651;SDS011;310;48.490;9.200;2023-08-06T00:28:55;115.00;;;3.53;;
651;SDS011;310;48.490;9.200;2023-08-06T00:31:20;115.07;;;3.60;;
651;SDS011;310;48.490;9.200;2023-08-06T00:33:46;115.00;;;3.60;;
651;SDS011;310;48.490;9.200;2023-08-06T00:36:11;115.10;;;3.63;;
651;SDS011;310;48.490;9.200;2023-08-06T00:38:37;115.40;;;3.90;;
651;SDS011;310;48.490;9.200;2023-08-06T00:41:02;114.90;;;3.43;;
651;SDS011;310;48.490;9.200;2023-08-06T00:43:28;116.27;;;4.00;;
651;SDS011;310;48.490;9.200;2023-08-06T00:45:54;115.07;;;3.40;;
651;SDS011;310;48.490;9.200;2023-08-06T00:48:20;115.20;;;3.80;;
651;SDS011;310;48.490;9.200;2023-08-06T00:50:46;115.30;;;3.80;;
651;SDS011;310;48.490;9.200;2023-08-06T00:53:12;115.20;;;3.77;;
651;SDS011;310;48.490;9.200;2023-08-06T00:55:38;115.67;;;3.83;;
651;SDS011;310;48.490;9.200;2023-08-06T00:58:03;115.67;;;3.90;;
651;SDS011;310;48.490;9.200;2023-08-06T01:00:30;115.93;;;4.20;;
651;SDS011;310;48.490;9.200;2023-08-06T01:02:55;115.67;;;3.90;;
651;SDS011;310;48.490;9.200;2023-08-06T01:05:22;115.50;;;3.97;;
651;SDS011;310;48.490;9.200;2023-08-06T01:13:46;115.47;;;3.73;;
651;SDS011;310;48.490;9.200;2023-08-06T01:16:18;114.97;;;3.30;;
651;SDS011;310;48.490;9.200;2023-08-06T01:18:46;115.67;;;4.03;;
651;SDS011;310;48.490;9.200;2023-08-06T01:21:14;115.07;;;3.30;;
651;SDS011;310;48.490;9.200;2023-08-06T01:23:41;115.50;;;3.83;;
651;SDS011;310;48.490;9.200;2023-08-06T01:26:24;115.87;;;4.00;;
651;SDS011;310;48.490;9.200;2023-08-06T01:31:53;115.37;;;3.70;;
651;SDS011;310;48.490;9.200;2023-08-06T01:34:21;115.53;;;3.83;;
651;SDS011;310;48.490;9.200;2023-08-06T01:36:48;115.13;;;3.37;;
651;SDS011;310;48.490;9.200;2023-08-06T01:39:15;115.67;;;3.90;;
651;SDS011;310;48.490;9.200;2023-08-06T01:41:40;115.50;;;3.80;;
651;SDS011;310;48.490;9.200;2023-08-06T01:44:06;115.37;;;3.67;;
651;SDS011;310;48.490;9.200;2023-08-06T01:46:31;115.37;;;3.63;;
651;SDS011;310;48.490;9.200;2023-08-06T01:48:57;115.10;;;3.30;;
651;SDS011;310;48.490;9.200;2023-08-06T01:51:22;115.00;;;3.10;;
651;SDS011;310;48.490;9.200;2023-08-06T01:53:48;115.13;;;3.30;;
651;SDS011;310;48.490;9.200;2023-08-06T01:56:13;115.20;;;3.40;;
651;SDS011;310;48.490;9.200;2023-08-06T01:58:39;115.30;;;3.60;;
651;SDS011;310;48.490;9.200;2023-08-06T02:01:05;115.33;;;3.50;;
651;SDS011;310;48.490;9.200;2023-08-06T02:03:30;114.90;;;3.30;;
651;SDS011;310;48.490;9.200;2023-08-06T02:05:56;116.07;;;4.03;;
651;SDS011;310;48.490;9.200;2023-08-06T02:08:21;116.87;;;4.03;;
651;SDS011;310;48.490;9.200;2023-08-06T02:10:47;115.70;;;3.77;;
651;SDS011;310;48.490;9.200;2023-08-06T02:13:13;115.70;;;3.97;;
651;SDS011;310;48.490;9.200;2023-08-06T02:15:41;115.10;;;3.43;;
651;SDS011;310;48.490;9.200;2023-08-06T02:18:08;115.00;;;3.43;;
651;SDS011;310;48.490;9.200;2023-08-06T02:20:34;114.70;;;3.00;;
651;SDS011;310;48.490;9.200;2023-08-06T02:22:59;115.30;;;3.60;;
651;SDS011;310;48.490;9.200;2023-08-06T02:25:25;115.00;;;3.40;;
651;SDS011;310;48.490;9.200;2023-08-06T02:27:50;115.17;;;3.20;;
651;SDS011;310;48.490;9.200;2023-08-06T02:30:16;115.23;;;3.43;;
651;SDS011;310;48.490;9.200;2023-08-06T02:32:41;115.17;;;3.30;;
651;SDS011;310;48.490;9.200;2023-08-06T02:35:07;115.00;;;3.27;;
651;SDS011;310;48.490;9.200;2023-08-06T02:37:33;115.10;;;3.57;;
651;SDS011;310;48.490;9.200;2023-08-06T02:39:59;115.20;;;3.30;;
651;SDS011;310;48.490;9.200;2023-08-06T02:42:25;115.37;;;3.47;;
651;SDS011;310;48.490;9.200;2023-08-06T02:44:51;115.40;;;3.50;;
651;SDS011;310;48.490;9.200;2023-08-06T02:47:20;115.17;;;3.43;;
651;SDS011;310;48.490;9.200;2023-08-06T02:49:45;115.43;;;3.60;;
651;SDS011;310;48.490;9.200;2023-08-06T02:52:11;115.30;;;3.47;;
651;SDS011;310;48.490;9.200;2023-08-06T02:54:37;115.23;;;3.70;;
651;SDS011;310;48.490;9.200;2023-08-06T02:57:02;115.83;;;3.83;;
651;SDS011;310;48.490;9.200;2023-08-06T02:59:28;115.47;;;3.70;;
651;SDS011;310;48.490;9.200;2023-08-06T03:01:54;115.97;;;4.20;;
651;SDS011;310;48.490;9.200;2023-08-06T03:04:19;115.07;;;3.47;;
651;SDS011;310;48.490;9.200;2023-08-06T03:06:45;130.63;;;3.67;;
651;SDS011;310;48.490;9.200;2023-08-06T03:09:10;115.80;;;3.97;;
651;SDS011;310;48.490;9.200;2023-08-06T03:11:36;115.40;;;3.60;;
651;SDS011;310;48.490;9.200;2023-08-06T03:14:01;115.00;;;3.20;;
651;SDS011;310;48.490;9.200;2023-08-06T03:16:27;115.17;;;3.73;;
651;SDS011;310;48.490;9.200;2023-08-06T03:18:52;115.47;;;3.90;;
651;SDS011;310;48.490;9.200;2023-08-06T03:21:18;114.67;;;3.30;;
651;SDS011;310;48.490;9.200;2023-08-06T03:23:46;114.90;;;3.30;;
651;SDS011;310;48.490;9.200;2023-08-06T03:26:12;114.87;;;3.30;;
651;SDS011;310;48.490;9.200;2023-08-06T03:28:38;115.07;;;3.47;;
651;SDS011;310;48.490;9.200;2023-08-06T03:31:03;114.80;;;3.20;;
651;SDS011;310;48.490;9.200;2023-08-06T03:33:29;115.40;;;3.70;;
651;SDS011;310;48.490;9.200;2023-08-06T03:35:55;114.47;;;3.10;;
651;SDS011;310;48.490;9.200;2023-08-06T03:38:21;115.20;;;3.73;;
651;SDS011;310;48.490;9.200;2023-08-06T03:40:48;115.17;;;3.60;;
651;SDS011;310;48.490;9.200;2023-08-06T03:43:14;115.10;;;3.47;;
651;SDS011;310;48.490;9.200;2023-08-06T03:45:40;115.27;;;3.70;;
651;SDS011;310;48.490;9.200;2023-08-06T03:48:06;115.50;;;4.03;;
651;SDS011;310;48.490;9.200;2023-08-06T03:50:32;115.20;;;3.53;;
651;SDS011;310;48.490;9.200;2023-08-06T03:52:57;115.17;;;3.63;;
651;SDS011;310;48.490;9.200;2023-08-06T03:55:23;115.10;;;3.50;;
651;SDS011;310;48.490;9.200;2023-08-06T03:57:48;115.27;;;3.50;;
651;SDS011;310;48.490;9.200;2023-08-06T04:00:14;115.17;;;3.73;;
651;SDS011;310;48.490;9.200;2023-08-06T04:02:40;114.90;;;3.60;;
651;SDS011;310;48.490;9.200;2023-08-06T04:05:05;115.13;;;3.73;;
651;SDS011;310;48.490;9.200;2023-08-06T04:07:31;114.87;;;3.37;;
651;SDS011;310;48.490;9.200;2023-08-06T04:09:58;114.93;;;3.63;;
651;SDS011;310;48.490;9.200;2023-08-06T04:12:24;114.80;;;3.43;;
651;SDS011;310;48.490;9.200;2023-08-06T04:14:51;115.10;;;3.63;;
651;SDS011;310;48.490;9.200;2023-08-06T04:17:17;115.40;;;4.07;;
651;SDS011;310;48.490;9.200;2023-08-06T04:19:47;115.07;;;3.80;;
651;SDS011;310;48.490;9.200;2023-08-06T04:22:14;115.43;;;3.80;;
651;SDS011;310;48.490;9.200;2023-08-06T04:24:39;115.17;;;3.83;;
651;SDS011;310;48.490;9.200;2023-08-06T04:27:05;115.20;;;3.83;;
651;SDS011;310;48.490;9.200;2023-08-06T04:29:30;114.77;;;3.50;;
651;SDS011;310;48.490;9.200;2023-08-06T04:31:56;114.80;;;3.60;;
651;SDS011;310;48.490;9.200;2023-08-06T04:34:22;115.00;;;3.70;;
651;SDS011;310;48.490;9.200;2023-08-06T04:36:48;115.07;;;3.87;;
651;SDS011;310;48.490;9.200;2023-08-06T04:39:13;114.80;;;3.50;;
651;SDS011;310;48.490;9.200;2023-08-06T04:41:39;114.70;;;3.37;;
651;SDS011;310;48.490;9.200;2023-08-06T04:44:05;114.90;;;3.40;;
651;SDS011;310;48.490;9.200;2023-08-06T04:46:30;114.83;;;3.50;;
651;SDS011;310;48.490;9.200;2023-08-06T04:48:56;114.60;;;3.43;;
651;SDS011;310;48.490;9.200;2023-08-06T04:51:21;115.17;;;3.77;;
651;SDS011;310;48.490;9.200;2023-08-06T04:53:47;114.87;;;3.50;;
651;SDS011;310;48.490;9.200;2023-08-06T04:56:12;114.60;;;3.23;;
651;SDS011;310;48.490;9.200;2023-08-06T04:58:38;115.17;;;3.97;;
651;SDS011;310;48.490;9.200;2023-08-06T05:01:04;114.77;;;3.30;;
651;SDS011;310;48.490;9.200;2023-08-06T05:03:29;115.37;;;4.10;;
651;SDS011;310;48.490;9.200;2023-08-06T05:05:55;115.20;;;3.50;;
651;SDS011;310;48.490;9.200;2023-08-06T05:08:20;114.67;;;3.20;;
651;SDS011;310;48.490;9.200;2023-08-06T05:10:46;114.97;;;3.53;;
651;SDS011;310;48.490;9.200;2023-08-06T05:13:11;116.13;;;4.27;;
651;SDS011;310;48.490;9.200;2023-08-06T05:15:37;115.43;;;3.80;;
651;SDS011;310;48.490;9.200;2023-08-06T05:18:04;114.97;;;3.70;;
651;SDS011;310;48.490;9.200;2023-08-06T05:20:30;114.93;;;3.47;;
651;SDS011;310;48.490;9.200;2023-08-06T05:22:56;115.17;;;3.90;;
651;SDS011;310;48.490;9.200;2023-08-06T05:25:21;114.57;;;3.30;;
651;SDS011;310;48.490;9.200;2023-08-06T05:27:47;114.67;;;3.30;;
651;SDS011;310;48.490;9.200;2023-08-06T05:30:12;114.30;;;3.20;;
651;SDS011;310;48.490;9.200;2023-08-06T05:32:38;114.87;;;3.50;;
651;SDS011;310;48.490;9.200;2023-08-06T05:35:03;115.17;;;3.70;;
651;SDS011;310;48.490;9.200;2023-08-06T05:37:29;114.60;;;3.50;;
651;SDS011;310;48.490;9.200;2023-08-06T05:39:55;114.80;;;3.50;;
651;SDS011;310;48.490;9.200;2023-08-06T05:42:20;114.40;;;3.23;;
651;SDS011;310;48.490;9.200;2023-08-06T05:44:46;115.13;;;4.03;;
651;SDS011;310;48.490;9.200;2023-08-06T05:47:11;114.50;;;3.33;;
651;SDS011;310;48.490;9.200;2023-08-06T05:49:37;114.77;;;3.57;;
651;SDS011;310;48.490;9.200;2023-08-06T05:52:03;115.10;;;3.83;;
651;SDS011;310;48.490;9.200;2023-08-06T05:54:31;115.67;;;4.27;;
651;SDS011;310;48.490;9.200;2023-08-06T05:56:57;115.77;;;4.37;;
651;SDS011;310;48.490;9.200;2023-08-06T05:59:22;115.27;;;3.90;;
651;SDS011;310;48.490;9.200;2023-08-06T06:01:48;114.87;;;3.73;;
651;SDS011;310;48.490;9.200;2023-08-06T06:04:13;114.80;;;3.67;;
651;SDS011;310;48.490;9.200;2023-08-06T06:06:39;114.27;;;3.20;;
651;SDS011;310;48.490;9.200;2023-08-06T06:09:06;114.63;;;3.63;;
651;SDS011;310;48.490;9.200;2023-08-06T06:11:32;114.67;;;3.60;;
651;SDS011;310;48.490;9.200;2023-08-06T06:13:57;114.87;;;3.80;;
651;SDS011;310;48.490;9.200;2023-08-06T06:16:23;114.70;;;3.60;;
651;SDS011;310;48.490;9.200;2023-08-06T06:18:48;114.60;;;3.63;;
651;SDS011;310;48.490;9.200;2023-08-06T06:21:14;114.67;;;3.70;;
651;SDS011;310;48.490;9.200;2023-08-06T06:23:40;114.60;;;3.53;;
651;SDS011;310;48.490;9.200;2023-08-06T06:26:05;114.40;;;3.50;;
651;SDS011;310;48.490;9.200;2023-08-06T06:28:31;114.67;;;3.73;;
651;SDS011;310;48.490;9.200;2023-08-06T06:31:00;114.03;;;3.37;;
651;SDS011;310;48.490;9.200;2023-08-06T06:33:26;114.50;;;3.60;;
651;SDS011;310;48.490;9.200;2023-08-06T06:35:52;114.43;;;3.47;;
651;SDS011;310;48.490;9.200;2023-08-06T06:38:18;114.30;;;3.67;;
651;SDS011;310;48.490;9.200;2023-08-06T06:40:43;114.50;;;3.70;;
651;SDS011;310;48.490;9.200;2023-08-06T06:43:09;114.07;;;3.30;;
651;SDS011;310;48.490;9.200;2023-08-06T06:45:34;114.17;;;3.47;;
651;SDS011;310;48.490;9.200;2023-08-06T06:48:00;113.97;;;3.33;;
651;SDS011;310;48.490;9.200;2023-08-06T06:50:25;114.63;;;4.10;;
651;SDS011;310;48.490;9.200;2023-08-06T06:52:51;114.20;;;3.53;;
651;SDS011;310;48.490;9.200;2023-08-06T06:55:17;114.27;;;3.63;;
651;SDS011;310;48.490;9.200;2023-08-06T06:57:42;113.93;;;3.60;;
651;SDS011;310;48.490;9.200;2023-08-06T07:00:08;114.17;;;3.70;;
651;SDS011;310;48.490;9.200;2023-08-06T07:02:34;113.80;;;3.40;;
651;SDS011;310;48.490;9.200;2023-08-06T07:04:59;114.07;;;3.70;;
651;SDS011;310;48.490;9.200;2023-08-06T07:07:25;113.80;;;3.60;;
651;SDS011;310;48.490;9.200;2023-08-06T07:09:50;113.80;;;3.40;;
651;SDS011;310;48.490;9.200;2023-08-06T07:12:16;114.00;;;3.80;;
651;SDS011;310;48.490;9.200;2023-08-06T07:14:41;114.20;;;3.87;;
651;SDS011;310;48.490;9.200;2023-08-06T07:17:07;113.67;;;3.47;;
651;SDS011;310;48.490;9.200;2023-08-06T07:19:32;113.57;;;3.57;;
651;SDS011;310;48.490;9.200;2023-08-06T07:21:58;113.90;;;3.60;;
651;SDS011;310;48.490;9.200;2023-08-06T07:24:23;113.67;;;3.27;;
651;SDS011;310;48.490;9.200;2023-08-06T07:26:49;114.20;;;3.97;;
651;SDS011;310;48.490;9.200;2023-08-06T07:29:15;113.87;;;3.77;;
651;SDS011;310;48.490;9.200;2023-08-06T07:31:45;113.77;;;3.80;;
651;SDS011;310;48.490;9.200;2023-08-06T07:34:10;113.27;;;3.43;;
651;SDS011;310;48.490;9.200;2023-08-06T07:36:37;113.40;;;3.20;;
651;SDS011;310;48.490;9.200;2023-08-06T07:39:02;113.97;;;3.80;;
651;SDS011;310;48.490;9.200;2023-08-06T07:41:31;113.87;;;3.43;;
651;SDS011;310;48.490;9.200;2023-08-06T07:43:56;113.50;;;3.20;;
651;SDS011;310;48.490;9.200;2023-08-06T07:46:22;113.83;;;3.57;;
651;SDS011;310;48.490;9.200;2023-08-06T07:48:48;113.77;;;3.43;;
651;SDS011;310;48.490;9.200;2023-08-06T07:51:13;113.90;;;3.50;;
651;SDS011;310;48.490;9.200;2023-08-06T07:53:39;114.00;;;3.70;;
651;SDS011;310;48.490;9.200;2023-08-06T07:56:05;113.50;;;3.17;;
651;SDS011;310;48.490;9.200;2023-08-06T07:58:31;113.87;;;3.63;;
651;SDS011;310;48.490;9.200;2023-08-06T08:00:56;113.97;;;3.60;;
651;SDS011;310;48.490;9.200;2023-08-06T08:03:22;113.90;;;3.50;;
651;SDS011;310;48.490;9.200;2023-08-06T08:05:48;113.37;;;3.30;;
651;SDS011;310;48.490;9.200;2023-08-06T08:08:13;114.13;;;3.67;;
651;SDS011;310;48.490;9.200;2023-08-06T08:10:39;113.57;;;3.30;;
651;SDS011;310;48.490;9.200;2023-08-06T08:13:05;113.60;;;3.10;;
651;SDS011;310;48.490;9.200;2023-08-06T08:15:31;113.47;;;3.17;;
651;SDS011;310;48.490;9.200;2023-08-06T08:17:57;113.67;;;3.20;;
651;SDS011;310;48.490;9.200;2023-08-06T08:20:24;113.60;;;3.17;;
651;SDS011;310;48.490;9.200;2023-08-06T08:22:49;113.57;;;3.37;;
651;SDS011;310;48.490;9.200;2023-08-06T08:25:15;113.50;;;3.30;;
651;SDS011;310;48.490;9.200;2023-08-06T08:27:41;113.00;;;2.90;;
651;SDS011;310;48.490;9.200;2023-08-06T08:30:07;113.57;;;3.20;;
651;SDS011;310;48.490;9.200;2023-08-06T08:32:33;113.37;;;3.27;;
651;SDS011;310;48.490;9.200;2023-08-06T08:34:58;113.50;;;3.30;;
651;SDS011;310;48.490;9.200;2023-08-06T08:37:24;113.70;;;3.53;;
651;SDS011;310;48.490;9.200;2023-08-06T08:39:50;113.20;;;3.57;;
651;SDS011;310;48.490;9.200;2023-08-06T08:42:15;113.50;;;3.43;;
651;SDS011;310;48.490;9.200;2023-08-06T08:44:44;113.30;;;3.10;;
651;SDS011;310;48.490;9.200;2023-08-06T08:47:10;113.67;;;3.50;;
651;SDS011;310;48.490;9.200;2023-08-06T08:49:36;113.77;;;3.67;;
651;SDS011;310;48.490;9.200;2023-08-06T08:52:03;113.40;;;3.23;;
651;SDS011;310;48.490;9.200;2023-08-06T08:54:35;113.87;;;3.83;;
651;SDS011;310;48.490;9.200;2023-08-06T08:57:02;113.70;;;3.50;;
651;SDS011;310;48.490;9.200;2023-08-06T08:59:28;113.37;;;3.50;;
651;SDS011;310;48.490;9.200;2023-08-06T09:01:54;113.43;;;3.53;;
651;SDS011;310;48.490;9.200;2023-08-06T09:04:21;113.33;;;3.30;;
651;SDS011;310;48.490;9.200;2023-08-06T09:06:50;113.97;;;3.87;;
651;SDS011;310;48.490;9.200;2023-08-06T09:09:16;113.40;;;3.30;;
651;SDS011;310;48.490;9.200;2023-08-06T09:11:53;113.23;;;3.10;;
651;SDS011;310;48.490;9.200;2023-08-06T09:14:24;112.80;;;2.90;;
651;SDS011;310;48.490;9.200;2023-08-06T09:16:50;113.17;;;3.13;;
651;SDS011;310;48.490;9.200;2023-08-06T09:19:16;113.47;;;3.47;;
651;SDS011;310;48.490;9.200;2023-08-06T09:21:42;113.43;;;3.40;;
651;SDS011;310;48.490;9.200;2023-08-06T09:24:13;113.37;;;3.40;;
651;SDS011;310;48.490;9.200;2023-08-06T09:26:40;113.03;;;3.10;;
651;SDS011;310;48.490;9.200;2023-08-06T09:29:07;113.67;;;3.63;;
651;SDS011;310;48.490;9.200;2023-08-06T09:31:49;113.40;;;3.67;;
651;SDS011;310;48.490;9.200;2023-08-06T09:34:19;113.63;;;3.77;;
651;SDS011;310;48.490;9.200;2023-08-06T09:36:53;113.63;;;3.60;;
651;SDS011;310;48.490;9.200;2023-08-06T09:39:20;112.70;;;2.97;;
651;SDS011;310;48.490;9.200;2023-08-06T09:41:47;113.57;;;3.80;;
651;SDS011;310;48.490;9.200;2023-08-06T09:44:16;112.70;;;2.93;;
651;SDS011;310;48.490;9.200;2023-08-06T09:46:46;112.93;;;3.40;;
651;SDS011;310;48.490;9.200;2023-08-06T09:49:17;113.00;;;3.40;;
651;SDS011;310;48.490;9.200;2023-08-06T09:51:44;112.47;;;2.90;;
651;SDS011;310;48.490;9.200;2023-08-06T09:54:12;112.60;;;3.40;;
651;SDS011;310;48.490;9.200;2023-08-06T09:56:39;112.37;;;3.20;;
651;SDS011;310;48.490;9.200;2023-08-06T09:59:05;112.70;;;3.13;;
651;SDS011;310;48.490;9.200;2023-08-06T10:01:35;112.77;;;3.27;;
651;SDS011;310;48.490;9.200;2023-08-06T10:04:01;112.47;;;3.10;;
651;SDS011;310;48.490;9.200;2023-08-06T10:06:29;112.77;;;3.43;;
651;SDS011;310;48.490;9.200;2023-08-06T10:08:54;112.47;;;3.07;;
651;SDS011;310;48.490;9.200;2023-08-06T10:11:21;112.70;;;3.30;;
651;SDS011;310;48.490;9.200;2023-08-06T10:13:49;112.40;;;3.20;;
651;SDS011;310;48.490;9.200;2023-08-06T10:16:22;112.50;;;3.17;;
651;SDS011;310;48.490;9.200;2023-08-06T10:18:49;112.30;;;3.30;;
651;SDS011;310;48.490;9.200;2023-08-06T10:21:15;112.70;;;3.50;;
651;SDS011;310;48.490;9.200;2023-08-06T10:23:41;112.80;;;3.43;;
651;SDS011;310;48.490;9.200;2023-08-06T10:26:07;112.60;;;3.23;;
651;SDS011;310;48.490;9.200;2023-08-06T10:28:36;112.73;;;3.17;;
651;SDS011;310;48.490;9.200;2023-08-06T10:31:03;112.57;;;3.13;;
651;SDS011;310;48.490;9.200;2023-08-06T10:33:45;113.00;;;3.43;;
651;SDS011;310;48.490;9.200;2023-08-06T10:36:12;112.70;;;3.17;;
651;SDS011;310;48.490;9.200;2023-08-06T10:38:47;112.73;;;3.17;;
651;SDS011;310;48.490;9.200;2023-08-06T10:41:15;113.17;;;3.73;;
651;SDS011;310;48.490;9.200;2023-08-06T10:43:42;112.47;;;2.80;;
651;SDS011;310;48.490;9.200;2023-08-06T10:46:10;112.77;;;3.27;;
651;SDS011;310;48.490;9.200;2023-08-06T10:48:45;113.07;;;3.57;;
651;SDS011;310;48.490;9.200;2023-08-06T10:51:11;112.90;;;3.20;;
651;SDS011;310;48.490;9.200;2023-08-06T10:53:41;112.90;;;3.27;;
651;SDS011;310;48.490;9.200;2023-08-06T10:56:18;112.67;;;3.10;;
651;SDS011;310;48.490;9.200;2023-08-06T10:58:44;112.90;;;3.40;;
651;SDS011;310;48.490;9.200;2023-08-06T11:01:11;112.67;;;3.00;;
651;SDS011;310;48.490;9.200;2023-08-06T11:03:37;113.00;;;3.67;;
651;SDS011;310;48.490;9.200;2023-08-06T11:06:04;112.63;;;3.03;;
651;SDS011;310;48.490;9.200;2023-08-06T11:08:35;112.87;;;3.23;;
651;SDS011;310;48.490;9.200;2023-08-06T11:11:08;112.60;;;3.10;;
651;SDS011;310;48.490;9.200;2023-08-06T11:13:36;113.20;;;3.60;;
651;SDS011;310;48.490;9.200;2023-08-06T11:16:03;112.90;;;3.20;;
651;SDS011;310;48.490;9.200;2023-08-06T11:18:29;112.73;;;3.30;;
651;SDS011;310;48.490;9.200;2023-08-06T11:20:55;112.70;;;3.00;;
651;SDS011;310;48.490;9.200;2023-08-06T11:23:23;113.07;;;3.37;;
651;SDS011;310;48.490;9.200;2023-08-06T11:25:54;113.17;;;3.60;;
651;SDS011;310;48.490;9.200;2023-08-06T11:28:21;113.00;;;3.40;;
651;SDS011;310;48.490;9.200;2023-08-06T11:30:47;113.27;;;3.53;;
651;SDS011;310;48.490;9.200;2023-08-06T11:33:13;113.03;;;3.40;;
651;SDS011;310;48.490;9.200;2023-08-06T11:35:39;112.80;;;3.10;;
651;SDS011;310;48.490;9.200;2023-08-06T11:38:05;113.20;;;3.50;;
651;SDS011;310;48.490;9.200;2023-08-06T11:40:35;113.27;;;3.47;;
651;SDS011;310;48.490;9.200;2023-08-06T11:43:01;112.97;;;3.00;;
651;SDS011;310;48.490;9.200;2023-08-06T11:45:27;113.00;;;3.27;;
651;SDS011;310;48.490;9.200;2023-08-06T11:47:52;113.10;;;3.10;;
651;SDS011;310;48.490;9.200;2023-08-06T11:50:27;113.50;;;3.37;;
651;SDS011;310;48.490;9.200;2023-08-06T11:52:57;113.60;;;3.30;;
651;SDS011;310;48.490;9.200;2023-08-06T11:55:25;113.47;;;3.33;;
651;SDS011;310;48.490;9.200;2023-08-06T11:57:51;113.23;;;3.33;;
651;SDS011;310;48.490;9.200;2023-08-06T12:00:17;113.67;;;3.47;;
651;SDS011;310;48.490;9.200;2023-08-06T12:02:45;113.37;;;3.30;;
651;SDS011;310;48.490;9.200;2023-08-06T12:05:15;113.70;;;3.30;;
651;SDS011;310;48.490;9.200;2023-08-06T12:07:55;113.40;;;3.10;;
651;SDS011;310;48.490;9.200;2023-08-06T12:10:22;113.40;;;3.10;;
651;SDS011;310;48.490;9.200;2023-08-06T12:12:49;113.53;;;3.07;;
651;SDS011;310;48.490;9.200;2023-08-06T12:15:15;113.60;;;3.20;;
651;SDS011;310;48.490;9.200;2023-08-06T12:17:41;113.57;;;3.13;;
651;SDS011;310;48.490;9.200;2023-08-06T12:20:08;113.50;;;3.10;;
651;SDS011;310;48.490;9.200;2023-08-06T12:22:34;113.77;;;3.30;;
651;SDS011;310;48.490;9.200;2023-08-06T12:25:01;112.77;;;3.03;;
651;SDS011;310;48.490;9.200;2023-08-06T12:27:37;113.17;;;3.40;;
651;SDS011;310;48.490;9.200;2023-08-06T12:30:04;113.27;;;3.63;;
651;SDS011;310;48.490;9.200;2023-08-06T12:32:31;112.80;;;3.10;;
651;SDS011;310;48.490;9.200;2023-08-06T12:34:57;112.77;;;3.30;;
651;SDS011;310;48.490;9.200;2023-08-06T12:37:23;112.73;;;3.13;;
651;SDS011;310;48.490;9.200;2023-08-06T12:39:50;112.90;;;3.40;;
651;SDS011;310;48.490;9.200;2023-08-06T12:42:15;112.80;;;3.33;;
651;SDS011;310;48.490;9.200;2023-08-06T12:44:41;112.60;;;3.13;;
651;SDS011;310;48.490;9.200;2023-08-06T12:47:07;112.80;;;3.40;;
651;SDS011;310;48.490;9.200;2023-08-06T12:49:32;112.97;;;3.67;;
651;SDS011;310;48.490;9.200;2023-08-06T12:51:58;112.40;;;3.00;;
651;SDS011;310;48.490;9.200;2023-08-06T12:54:27;112.77;;;3.30;;
651;SDS011;310;48.490;9.200;2023-08-06T12:56:53;112.50;;;3.50;;
651;SDS011;310;48.490;9.200;2023-08-06T12:59:19;112.10;;;2.93;;
651;SDS011;310;48.490;9.200;2023-08-06T13:01:45;112.27;;;3.20;;
651;SDS011;310;48.490;9.200;2023-08-06T13:04:11;111.87;;;3.00;;
651;SDS011;310;48.490;9.200;2023-08-06T13:06:37;112.27;;;3.40;;
651;SDS011;310;48.490;9.200;2023-08-06T13:09:04;111.97;;;3.20;;
651;SDS011;310;48.490;9.200;2023-08-06T13:11:37;112.17;;;3.33;;
651;SDS011;310;48.490;9.200;2023-08-06T13:14:08;111.90;;;2.97;;
651;SDS011;310;48.490;9.200;2023-08-06T13:16:35;112.90;;;3.57;;
651;SDS011;310;48.490;9.200;2023-08-06T13:19:02;111.90;;;3.30;;
651;SDS011;310;48.490;9.200;2023-08-06T13:21:35;111.57;;;3.00;;
651;SDS011;310;48.490;9.200;2023-08-06T13:24:28;111.67;;;3.30;;
651;SDS011;310;48.490;9.200;2023-08-06T13:26:54;111.67;;;3.10;;
651;SDS011;310;48.490;9.200;2023-08-06T13:29:19;111.70;;;3.23;;
651;SDS011;310;48.490;9.200;2023-08-06T13:31:45;111.27;;;3.00;;
651;SDS011;310;48.490;9.200;2023-08-06T13:34:10;111.17;;;2.93;;
651;SDS011;310;48.490;9.200;2023-08-06T13:36:36;111.57;;;3.30;;
651;SDS011;310;48.490;9.200;2023-08-06T13:39:02;111.37;;;3.00;;
651;SDS011;310;48.490;9.200;2023-08-06T13:41:28;111.20;;;3.20;;
651;SDS011;310;48.490;9.200;2023-08-06T13:43:54;111.53;;;3.23;;
651;SDS011;310;48.490;9.200;2023-08-06T13:46:19;111.47;;;3.33;;
651;SDS011;310;48.490;9.200;2023-08-06T13:48:45;111.70;;;3.33;;
651;SDS011;310;48.490;9.200;2023-08-06T13:51:16;110.93;;;2.90;;
651;SDS011;310;48.490;9.200;2023-08-06T13:53:41;111.37;;;3.10;;
651;SDS011;310;48.490;9.200;2023-08-06T13:56:08;110.97;;;3.10;;
651;SDS011;310;48.490;9.200;2023-08-06T13:58:40;110.97;;;3.10;;
651;SDS011;310;48.490;9.200;2023-08-06T14:01:05;110.80;;;3.10;;
651;SDS011;310;48.490;9.200;2023-08-06T14:03:31;110.40;;;2.90;;
651;SDS011;310;48.490;9.200;2023-08-06T14:05:57;110.87;;;3.20;;
651;SDS011;310;48.490;9.200;2023-08-06T14:08:23;110.57;;;2.93;;
651;SDS011;310;48.490;9.200;2023-08-06T14:10:50;110.47;;;2.80;;
651;SDS011;310;48.490;9.200;2023-08-06T14:13:16;110.87;;;3.17;;
651;SDS011;310;48.490;9.200;2023-08-06T14:15:42;110.47;;;2.90;;
651;SDS011;310;48.490;9.200;2023-08-06T14:18:11;111.00;;;3.30;;
651;SDS011;310;48.490;9.200;2023-08-06T14:20:37;111.07;;;3.37;;
651;SDS011;310;48.490;9.200;2023-08-06T14:23:03;110.80;;;3.00;;
651;SDS011;310;48.490;9.200;2023-08-06T14:25:29;110.90;;;3.40;;
651;SDS011;310;48.490;9.200;2023-08-06T14:27:54;110.67;;;2.93;;
651;SDS011;310;48.490;9.200;2023-08-06T14:30:20;110.50;;;2.90;;
651;SDS011;310;48.490;9.200;2023-08-06T14:32:45;110.70;;;3.13;;
651;SDS011;310;48.490;9.200;2023-08-06T14:35:11;110.57;;;3.00;;
651;SDS011;310;48.490;9.200;2023-08-06T14:37:36;110.17;;;2.80;;
651;SDS011;310;48.490;9.200;2023-08-06T14:40:04;110.97;;;3.47;;
651;SDS011;310;48.490;9.200;2023-08-06T14:42:30;110.57;;;3.10;;
651;SDS011;310;48.490;9.200;2023-08-06T14:44:57;111.23;;;3.43;;
651;SDS011;310;48.490;9.200;2023-08-06T14:47:22;110.17;;;3.13;;
651;SDS011;310;48.490;9.200;2023-08-06T14:49:48;110.13;;;2.90;;
651;SDS011;310;48.490;9.200;2023-08-06T14:52:15;110.40;;;3.10;;
651;SDS011;310;48.490;9.200;2023-08-06T14:54:41;111.07;;;3.73;;
651;SDS011;310;48.490;9.200;2023-08-06T14:57:07;110.20;;;3.00;;
651;SDS011;310;48.490;9.200;2023-08-06T14:59:34;110.27;;;2.93;;
651;SDS011;310;48.490;9.200;2023-08-06T15:02:00;110.30;;;3.23;;
651;SDS011;310;48.490;9.200;2023-08-06T15:04:25;109.47;;;2.80;;
651;SDS011;310;48.490;9.200;2023-08-06T15:06:51;108.70;;;2.70;;
651;SDS011;310;48.490;9.200;2023-08-06T15:09:16;108.77;;;2.87;;
651;SDS011;310;48.490;9.200;2023-08-06T15:11:42;108.67;;;2.77;;
651;SDS011;310;48.490;9.200;2023-08-06T15:14:08;108.90;;;3.20;;
651;SDS011;310;48.490;9.200;2023-08-06T15:16:33;108.57;;;3.00;;
651;SDS011;310;48.490;9.200;2023-08-06T15:19:00;108.77;;;3.30;;
651;SDS011;310;48.490;9.200;2023-08-06T15:21:26;108.50;;;3.10;;